Time;durP1;ratioP1;P1;durP2;ratioP2;P2;SDS_P1;SDS_P2;PMS_P1;PMS_P2;Temp;Humidity;BMP_temperature;BMP_pressure;BME280_temperature;BME280_humidity;BME280_pressure;Samples;Min_cycle;Max_cycle;Signal;HPM_P1;HPM_P2
2024/04/17 00:01:33;;;;;;;1.10;0.70;;;;;;;;;;5490832;25;20004;-78
2024/04/17 00:04:18;;;;;;;1.75;0.70;;;;;;;;;;5491512;25;20012;-78
2024/04/17 00:07:04;;;;;;;1.77;1.10;;;;;;;;;;5480786;26;20030;-78
2024/04/17 00:09:49;;;;;;;0.93;0.60;;;;;;;;;;5507048;25;20007;-78
2024/04/17 00:12:34;;;;;;;2.85;0.77;;;;;;;;;;5520771;25;20009;-78
2024/04/17 00:15:19;;;;;;;1.02;0.70;;;;;;;;;;5452370;26;20039;-79
2024/04/17 00:18:05;;;;;;;0.60;0.60;;;;;;;;;;5481786;26;20012;-79
2024/04/17 00:20:50;;;;;;;2.22;0.80;;;;;;;;;;5488632;26;20001;-78
2024/04/17 00:23:35;;;;;;;0.95;0.73;;;;;;;;;;5479716;26;19998;-79
2024/04/17 00:26:21;;;;;;;1.85;1.02;;;;;;;;;;5452753;25;20002;-79
2024/04/17 00:29:06;;;;;;;2.45;0.70;;;;;;;;;;5493197;26;20001;-79
2024/04/17 00:31:51;;;;;;;4.30;1.38;;;;;;;;;;5452000;26;20304;-79
2024/04/17 00:34:36;;;;;;;0.80;0.65;;;;;;;;;;5509666;25;20005;-80
2024/04/17 00:37:21;;;;;;;2.08;0.70;;;;;;;;;;5487923;26;20072;-80
2024/04/17 00:40:07;;;;;;;0.85;0.70;;;;;;;;;;5487950;26;20337;-80
2024/04/17 00:42:52;;;;;;;2.00;0.65;;;;;;;;;;5507044;25;20001;-78
2024/04/17 00:45:42;;;;;;;2.05;0.68;;;;;;;;;;5524760;25;20467;-79
2024/04/17 00:48:28;;;;;;;0.68;0.68;;;;;;;;;;5454349;26;20013;-79
2024/04/17 00:51:13;;;;;;;0.85;0.70;;;;;;;;;;5451345;26;20091;-79
2024/04/17 00:53:58;;;;;;;2.42;0.90;;;;;;;;;;5462721;25;20061;-79
2024/04/17 00:56:43;;;;;;;3.03;0.90;;;;;;;;;;5491493;26;20385;-79
2024/04/17 00:59:29;;;;;;;2.38;0.70;;;;;;;;;;5491326;26;20009;-80
2024/04/17 01:02:14;;;;;;;0.60;0.60;;;;;;;;;;5491184;26;20074;-79
2024/04/17 01:04:59;;;;;;;1.25;0.63;;;;;;;;;;5493431;26;20005;-80
2024/04/17 01:07:45;;;;;;;1.77;1.00;;;;;;;;;;5491481;26;20016;-80
2024/04/17 01:10:30;;;;;;;0.80;0.80;;;;;;;;;;5491059;26;20016;-79
2024/04/17 01:13:15;;;;;;;2.17;0.70;;;;;;;;;;5481304;26;20060;-80
2024/04/17 01:16:00;;;;;;;0.70;0.70;;;;;;;;;;5515051;25;20011;-80
2024/04/17 01:18:46;;;;;;;2.80;0.82;;;;;;;;;;5517662;25;20396;-80
2024/04/17 01:21:32;;;;;;;1.35;0.98;;;;;;;;;;5479560;26;20036;-80
2024/04/17 01:24:18;;;;;;;0.80;0.80;;;;;;;;;;5516027;25;19997;-80
2024/04/17 01:27:03;;;;;;;3.15;0.85;;;;;;;;;;5517291;26;20004;-80
2024/04/17 01:29:48;;;;;;;5.43;1.23;;;;;;;;;;5454421;26;20095;-80
2024/04/17 01:32:33;;;;;;;1.48;0.75;;;;;;;;;;5454540;26;20013;-80
2024/04/17 01:35:19;;;;;;;3.88;1.20;;;;;;;;;;5462015;26;20006;-80
2024/04/17 01:38:04;;;;;;;1.58;0.85;;;;;;;;;;5491754;26;20504;-80
2024/04/17 01:40:49;;;;;;;1.23;1.10;;;;;;;;;;5490371;26;19997;-78
2024/04/17 01:43:34;;;;;;;2.90;0.85;;;;;;;;;;5494022;26;20094;-78
2024/04/17 01:46:20;;;;;;;2.58;1.00;;;;;;;;;;5510989;26;20001;-79
2024/04/17 01:49:05;;;;;;;1.08;0.95;;;;;;;;;;5455351;26;20218;-79
2024/04/17 01:51:50;;;;;;;0.90;0.90;;;;;;;;;;5454346;26;20010;-79
2024/04/17 01:54:35;;;;;;;1.40;0.82;;;;;;;;;;5453892;26;20078;-79
2024/04/17 01:57:20;;;;;;;0.82;0.82;;;;;;;;;;5471612;26;19998;-79
2024/04/17 02:00:06;;;;;;;2.17;1.05;;;;;;;;;;5512062;26;19997;-79
2024/04/17 02:02:51;;;;;;;0.80;0.80;;;;;;;;;;5520840;26;20017;-79
2024/04/17 02:05:37;;;;;;;2.65;1.00;;;;;;;;;;5519647;26;20033;-80
2024/04/17 02:08:22;;;;;;;0.80;0.80;;;;;;;;;;5517397;26;20005;-80
2024/04/17 02:11:08;;;;;;;1.65;0.88;;;;;;;;;;5518062;26;20013;-80
2024/04/17 02:13:53;;;;;;;1.00;0.90;;;;;;;;;;5494546;26;20456;-81
2024/04/17 02:16:38;;;;;;;1.10;0.80;;;;;;;;;;5514594;26;20006;-80
2024/04/17 02:19:23;;;;;;;1.08;0.98;;;;;;;;;;5457787;26;19994;-80
2024/04/17 02:22:08;;;;;;;1.10;1.00;;;;;;;;;;5467596;26;19994;-79
2024/04/17 02:24:54;;;;;;;2.15;0.80;;;;;;;;;;5461884;25;20006;-79
2024/04/17 02:27:39;;;;;;;1.35;0.95;;;;;;;;;;5528418;25;20080;-79
2024/04/17 02:30:24;;;;;;;2.40;1.08;;;;;;;;;;5531264;25;20016;-79
2024/04/17 02:33:09;;;;;;;1.40;1.20;;;;;;;;;;5521245;25;19997;-79
2024/04/17 02:35:54;;;;;;;1.20;1.10;;;;;;;;;;5503283;25;20001;-79
2024/04/17 02:38:40;;;;;;;1.23;1.00;;;;;;;;;;5506881;26;20001;-79
2024/04/17 02:41:25;;;;;;;0.82;0.82;;;;;;;;;;5493682;26;20013;-80
2024/04/17 02:44:11;;;;;;;1.02;0.93;;;;;;;;;;5522932;25;20012;-79
2024/04/17 02:47:00;;;;;;;1.40;1.08;;;;;;;;;;5506222;26;19998;-81
2024/04/17 02:52:51;;;;;;;2.58;1.17;;;;;;;;;;5487905;26;19935;-79
2024/04/17 02:56:27;;;;;;;1.75;1.13;;;;;;;;;;5493714;26;19993;-80
2024/04/17 02:59:12;;;;;;;1.20;1.10;;;;;;;;;;5477410;25;20267;-79
2024/04/17 03:01:57;;;;;;;2.40;1.33;;;;;;;;;;5493568;26;20026;-80
2024/04/17 03:04:43;;;;;;;1.75;1.42;;;;;;;;;;5454657;26;19994;-79
2024/04/17 03:07:28;;;;;;;0.93;0.93;;;;;;;;;;5454395;26;20038;-79
2024/04/17 03:10:13;;;;;;;2.47;1.48;;;;;;;;;;5481123;26;20022;-79
2024/04/17 03:12:59;;;;;;;1.67;0.98;;;;;;;;;;5460199;25;20005;-79
2024/04/17 03:15:44;;;;;;;0.70;0.70;;;;;;;;;;5526596;25;20078;-80
2024/04/17 03:18:29;;;;;;;1.10;1.00;;;;;;;;;;5460514;25;19990;-79
2024/04/17 03:21:14;;;;;;;2.58;1.50;;;;;;;;;;5490148;26;20000;-80
2024/04/17 03:24:00;;;;;;;0.70;0.70;;;;;;;;;;5512601;25;20003;-80
2024/04/17 03:26:48;;;;;;;0.80;0.80;;;;;;;;;;5493252;26;19990;-80
2024/04/17 03:29:33;;;;;;;1.20;0.75;;;;;;;;;;5488403;26;20037;-78
2024/04/17 03:32:18;;;;;;;0.93;0.60;;;;;;;;;;5505436;26;20397;-79
2024/04/17 03:35:04;;;;;;;1.77;0.85;;;;;;;;;;5489994;26;20001;-79
2024/04/17 03:37:49;;;;;;;1.10;1.00;;;;;;;;;;5489335;26;20123;-79
2024/04/17 03:40:34;;;;;;;2.80;1.30;;;;;;;;;;5491605;26;20536;-79
2024/04/17 03:43:19;;;;;;;3.15;1.90;;;;;;;;;;5489789;26;20033;-79
2024/04/17 03:46:05;;;;;;;3.20;1.65;;;;;;;;;;5515805;26;20034;-78
2024/04/17 03:48:50;;;;;;;2.22;1.70;;;;;;;;;;5453850;26;20002;-79
2024/04/17 03:51:35;;;;;;;3.50;2.00;;;;;;;;;;5453384;26;20022;-79
2024/04/17 03:54:20;;;;;;;3.05;2.03;;;;;;;;;;5453197;26;19998;-79
2024/04/17 03:57:06;;;;;;;3.92;2.03;;;;;;;;;;5449413;26;19998;-79
2024/04/17 03:59:51;;;;;;;3.42;2.10;;;;;;;;;;5474348;26;20009;-79
2024/04/17 04:02:36;;;;;;;4.53;2.75;;;;;;;;;;5504708;26;19997;-79
2024/04/17 04:05:21;;;;;;;3.65;2.53;;;;;;;;;;5514917;26;19997;-79
2024/04/17 04:08:06;;;;;;;3.47;2.28;;;;;;;;;;5514397;26;19997;-79
2024/04/17 04:10:52;;;;;;;3.95;2.53;;;;;;;;;;5511778;26;19997;-79
2024/04/17 04:13:37;;;;;;;4.18;2.72;;;;;;;;;;5504619;26;20071;-79
2024/04/17 04:16:22;;;;;;;4.38;2.40;;;;;;;;;;5472285;26;20002;-79
2024/04/17 04:19:07;;;;;;;6.53;3.10;;;;;;;;;;5479273;26;20500;-79
2024/04/17 04:21:53;;;;;;;4.22;2.63;;;;;;;;;;5458096;26;20029;-79
2024/04/17 04:24:39;;;;;;;5.50;3.78;;;;;;;;;;5488755;26;20084;-79
2024/04/17 04:27:25;;;;;;;5.43;2.70;;;;;;;;;;5487641;26;20009;-79
2024/04/17 04:30:10;;;;;;;3.78;2.72;;;;;;;;;;5491286;26;19997;-79
2024/04/17 04:32:55;;;;;;;4.72;2.65;;;;;;;;;;5511250;26;20002;-78
2024/04/17 04:35:41;;;;;;;3.30;2.33;;;;;;;;;;5505767;26;20037;-77
2024/04/17 04:38:26;;;;;;;6.38;3.28;;;;;;;;;;5512808;26;20002;-78
2024/04/17 04:41:11;;;;;;;5.43;3.35;;;;;;;;;;5510129;26;20012;-77
2024/04/17 04:43:56;;;;;;;4.75;2.83;;;;;;;;;;5488715;26;20016;-79
2024/04/17 04:46:42;;;;;;;4.72;3.08;;;;;;;;;;5488923;26;20009;-79
2024/04/17 04:49:27;;;;;;;6.85;3.80;;;;;;;;;;5488419;26;20001;-79
2024/04/17 04:52:12;;;;;;;9.73;3.47;;;;;;;;;;5491225;26;20001;-81
2024/04/17 04:54:57;;;;;;;5.18;2.83;;;;;;;;;;5452541;26;20030;-80
2024/04/17 04:57:45;;;;;;;4.72;3.33;;;;;;;;;;5451919;26;20014;-78
2024/04/17 05:00:30;;;;;;;2.97;2.30;;;;;;;;;;5464628;26;20100;-79
2024/04/17 05:03:16;;;;;;;3.70;2.50;;;;;;;;;;5476707;26;20002;-79
2024/04/17 05:06:01;;;;;;;3.55;2.70;;;;;;;;;;5474010;26;20060;-79
2024/04/17 05:08:46;;;;;;;3.88;2.70;;;;;;;;;;5486571;26;20026;-78
2024/04/17 05:11:31;;;;;;;5.70;2.10;;;;;;;;;;5448033;26;20066;-78
2024/04/17 05:14:17;;;;;;;4.90;3.10;;;;;;;;;;5482189;26;20007;-78
2024/04/17 05:17:02;;;;;;;6.68;2.90;;;;;;;;;;5479173;26;20005;-78
2024/04/17 05:19:47;;;;;;;5.10;2.80;;;;;;;;;;5473608;26;20293;-79
2024/04/17 05:22:33;;;;;;;4.93;3.00;;;;;;;;;;5477848;26;19997;-79
2024/04/17 05:25:20;;;;;;;5.03;2.88;;;;;;;;;;5480491;26;19994;-78
2024/04/17 05:28:05;;;;;;;4.63;2.97;;;;;;;;;;5487724;26;20085;-78
2024/04/17 05:30:57;;;;;;;3.83;2.55;;;;;;;;;;5485162;26;20053;-79
2024/04/17 05:33:43;;;;;;;5.10;3.28;;;;;;;;;;5488185;26;20012;-79
2024/04/17 05:36:28;;;;;;;5.03;3.58;;;;;;;;;;5487373;26;20001;-79
2024/04/17 05:39:13;;;;;;;5.15;3.08;;;;;;;;;;5484226;26;20448;-79
2024/04/17 05:41:59;;;;;;;5.13;2.90;;;;;;;;;;5491179;26;20002;-79
2024/04/17 05:44:44;;;;;;;4.95;3.15;;;;;;;;;;5491180;26;20001;-77
2024/04/17 05:47:30;;;;;;;4.85;3.15;;;;;;;;;;5490732;26;20001;-77
2024/04/17 05:50:15;;;;;;;5.25;3.03;;;;;;;;;;5491311;26;20459;-78
2024/04/17 05:53:00;;;;;;;8.32;3.00;;;;;;;;;;5490997;26;20038;-79
2024/04/17 05:55:45;;;;;;;3.63;3.10;;;;;;;;;;5490831;26;20001;-79
2024/04/17 05:58:32;;;;;;;8.48;3.03;;;;;;;;;;5490617;26;20009;-80
2024/04/17 06:01:18;;;;;;;5.53;3.50;;;;;;;;;;5491080;26;19997;-79
2024/04/17 06:04:03;;;;;;;5.15;3.60;;;;;;;;;;5491170;26;20041;-79
2024/04/17 06:06:48;;;;;;;6.35;3.65;;;;;;;;;;5480094;26;20252;-78
2024/04/17 06:09:33;;;;;;;7.88;4.75;;;;;;;;;;5451685;26;20002;-80
2024/04/17 06:12:19;;;;;;;7.60;4.82;;;;;;;;;;5445421;26;19999;-79
2024/04/17 06:15:04;;;;;;;8.25;4.65;;;;;;;;;;5453088;26;20002;-80
2024/04/17 06:17:49;;;;;;;7.65;5.13;;;;;;;;;;5479451;26;20013;-79
2024/04/17 06:20:35;;;;;;;6.75;5.07;;;;;;;;;;5491290;26;20077;-79
2024/04/17 06:23:20;;;;;;;8.77;5.78;;;;;;;;;;5490478;26;20001;-80
2024/04/17 06:26:05;;;;;;;8.75;5.63;;;;;;;;;;5489688;26;20012;-80
2024/04/17 06:28:50;;;;;;;9.77;6.80;;;;;;;;;;5490467;26;20016;-80
2024/04/17 06:31:35;;;;;;;10.18;6.38;;;;;;;;;;5490739;26;20005;-80
2024/04/17 06:34:21;;;;;;;9.68;5.53;;;;;;;;;;5490023;26;20083;-80
2024/04/17 06:37:06;;;;;;;8.00;4.93;;;;;;;;;;5490043;26;20001;-80
2024/04/17 06:39:51;;;;;;;9.00;5.97;;;;;;;;;;5490567;26;20035;-80
2024/04/17 06:42:37;;;;;;;8.07;5.32;;;;;;;;;;5490422;26;20009;-80
2024/04/17 06:45:22;;;;;;;7.82;5.35;;;;;;;;;;5489989;26;19993;-80
2024/04/17 06:48:08;;;;;;;8.65;6.07;;;;;;;;;;5478613;26;20391;-80
2024/04/17 06:50:53;;;;;;;7.72;5.40;;;;;;;;;;5453367;26;20013;-80
2024/04/17 06:53:39;;;;;;;8.48;5.05;;;;;;;;;;5453600;26;20006;-79
2024/04/17 06:56:26;;;;;;;5.85;3.85;;;;;;;;;;5453323;26;20013;-79
2024/04/17 06:59:11;;;;;;;6.60;4.47;;;;;;;;;;5450010;26;19998;-79
2024/04/17 07:01:56;;;;;;;5.40;3.78;;;;;;;;;;5451417;26;20002;-79
2024/04/17 07:04:41;;;;;;;7.22;4.40;;;;;;;;;;5489711;26;20344;-79
2024/04/17 07:07:27;;;;;;;6.07;4.10;;;;;;;;;;5489753;26;20008;-80
2024/04/17 07:10:12;;;;;;;7.00;4.40;;;;;;;;;;5490234;26;19997;-79
2024/04/17 07:12:57;;;;;;;6.43;3.92;;;;;;;;;;5490187;26;20202;-79
2024/04/17 07:15:42;;;;;;;6.07;3.97;;;;;;;;;;5489432;26;19997;-79
2024/04/17 07:18:27;;;;;;;6.20;4.10;;;;;;;;;;5478521;26;20670;-79
2024/04/17 07:21:13;;;;;;;7.57;4.25;;;;;;;;;;5453903;26;20390;-79
2024/04/17 07:23:58;;;;;;;8.70;5.20;;;;;;;;;;5453181;26;20002;-79
2024/04/17 07:26:43;;;;;;;9.50;4.63;;;;;;;;;;5452521;26;20002;-78
2024/04/17 07:29:28;;;;;;;6.30;4.32;;;;;;;;;;5452864;26;20013;-78
2024/04/17 07:32:15;;;;;;;6.07;3.80;;;;;;;;;;5453531;26;20365;-78
2024/04/17 07:35:00;;;;;;;4.68;3.05;;;;;;;;;;5452692;26;20018;-78
2024/04/17 07:37:45;;;;;;;4.32;2.92;;;;;;;;;;5452884;26;20256;-80
2024/04/17 07:40:30;;;;;;;4.50;2.90;;;;;;;;;;5452691;26;20461;-79
2024/04/17 07:43:15;;;;;;;4.57;2.55;;;;;;;;;;5452858;26;19998;-79
2024/04/17 07:46:01;;;;;;;3.33;2.22;;;;;;;;;;5452637;26;20006;-79
2024/04/17 07:48:47;;;;;;;5.68;2.47;;;;;;;;;;5452764;26;20006;-79
2024/04/17 07:51:32;;;;;;;7.65;3.33;;;;;;;;;;5453032;26;19999;-80
2024/04/17 07:54:17;;;;;;;4.45;2.42;;;;;;;;;;5452580;26;19998;-80
2024/04/17 07:57:03;;;;;;;6.95;2.95;;;;;;;;;;5449190;26;19995;-80
2024/04/17 07:59:48;;;;;;;4.63;3.03;;;;;;;;;;5462861;26;20030;-80
2024/04/17 08:02:33;;;;;;;6.53;3.20;;;;;;;;;;5451448;26;20002;-79
2024/04/17 08:05:19;;;;;;;5.03;3.10;;;;;;;;;;5452081;26;20018;-79
2024/04/17 08:08:04;;;;;;;7.60;3.83;;;;;;;;;;5452562;26;20082;-79
2024/04/17 08:10:50;;;;;;;7.28;4.00;;;;;;;;;;5452513;26;20002;-79
2024/04/17 08:13:36;;;;;;;6.55;3.90;;;;;;;;;;5452217;26;20013;-79
2024/04/17 08:16:22;;;;;;;7.88;4.68;;;;;;;;;;5455426;26;20009;-79
2024/04/17 08:19:07;;;;;;;5.15;3.90;;;;;;;;;;5488316;26;20097;-79
2024/04/17 08:21:52;;;;;;;7.03;4.25;;;;;;;;;;5489155;26;20066;-79
2024/04/17 08:24:37;;;;;;;10.43;5.03;;;;;;;;;;5488858;26;20013;-79
2024/04/17 08:27:22;;;;;;;7.50;4.55;;;;;;;;;;5488393;26;20001;-80
2024/04/17 08:30:08;;;;;;;7.40;4.70;;;;;;;;;;5488541;26;20475;-80
2024/04/17 08:32:53;;;;;;;8.55;4.22;;;;;;;;;;5488970;26;20030;-78
2024/04/17 08:35:39;;;;;;;9.43;4.90;;;;;;;;;;5488272;26;20337;-79
2024/04/17 08:38:26;;;;;;;7.40;4.68;;;;;;;;;;5488550;26;19997;-79
2024/04/17 08:41:11;;;;;;;7.47;4.63;;;;;;;;;;5487557;26;20008;-80
2024/04/17 08:43:58;;;;;;;10.32;5.55;;;;;;;;;;5488560;26;20073;-79
2024/04/17 08:46:44;;;;;;;7.30;4.80;;;;;;;;;;5483260;26;20010;-79
2024/04/17 08:49:31;;;;;;;6.60;4.63;;;;;;;;;;5487997;26;20516;-80
2024/04/17 08:52:18;;;;;;;8.18;4.65;;;;;;;;;;5488177;26;20079;-79
2024/04/17 08:55:04;;;;;;;7.85;4.47;;;;;;;;;;5487959;26;20013;-78
2024/04/17 08:57:49;;;;;;;5.97;4.05;;;;;;;;;;5488362;26;20012;-78
2024/04/17 09:00:36;;;;;;;7.97;5.00;;;;;;;;;;5487841;26;20038;-78
2024/04/17 09:03:22;;;;;;;7.03;4.30;;;;;;;;;;5487746;26;20005;-78
2024/04/17 09:06:08;;;;;;;9.25;5.10;;;;;;;;;;5487585;26;20077;-78
2024/04/17 09:08:55;;;;;;;7.80;4.57;;;;;;;;;;5487822;26;20033;-78
2024/04/17 09:11:41;;;;;;;7.90;4.20;;;;;;;;;;5488013;26;20009;-78
2024/04/17 09:14:26;;;;;;;6.22;3.92;;;;;;;;;;5488985;26;20359;-78
2024/04/17 09:17:11;;;;;;;6.45;3.72;;;;;;;;;;5480450;26;20009;-78
2024/04/17 09:19:57;;;;;;;6.05;3.95;;;;;;;;;;5455164;26;20016;-78
2024/04/17 09:22:42;;;;;;;7.00;3.55;;;;;;;;;;5455006;26;20468;-79
2024/04/17 09:25:27;;;;;;;5.20;3.50;;;;;;;;;;5454063;26;20014;-79
2024/04/17 09:28:13;;;;;;;7.72;4.55;;;;;;;;;;5455060;26;20461;-80
2024/04/17 09:30:58;;;;;;;6.18;2.97;;;;;;;;;;5454672;26;20010;-79
2024/04/17 09:33:47;;;;;;;6.82;3.83;;;;;;;;;;5455008;26;20002;-79
2024/04/17 09:36:32;;;;;;;6.60;3.90;;;;;;;;;;5452205;26;20333;-79
2024/04/17 09:39:17;;;;;;;4.60;3.33;;;;;;;;;;5448720;26;20034;-79
2024/04/17 09:42:07;;;;;;;6.10;3.88;;;;;;;;;;5454719;26;20012;-80
2024/04/17 09:44:56;;;;;;;6.57;3.65;;;;;;;;;;5455329;26;20013;-80
2024/04/17 09:47:43;;;;;;;8.27;4.80;;;;;;;;;;5477635;26;20444;-79
2024/04/17 09:50:32;;;;;;;8.13;4.18;;;;;;;;;;5490713;26;20008;-80
2024/04/17 09:53:18;;;;;;;11.77;4.60;;;;;;;;;;5454747;26;20001;-78
2024/04/17 09:56:03;;;;;;;9.05;4.53;;;;;;;;;;5453485;26;20054;-78
2024/04/17 09:58:50;;;;;;;7.30;4.43;;;;;;;;;;5455028;26;20441;-78
2024/04/17 10:01:38;;;;;;;8.70;5.10;;;;;;;;;;5458665;26;19998;-77
2024/04/17 10:04:27;;;;;;;7.80;4.90;;;;;;;;;;5457803;26;20010;-78
2024/04/17 10:07:13;;;;;;;10.88;4.95;;;;;;;;;;5455393;26;20088;-79
2024/04/17 10:09:59;;;;;;;13.10;5.25;;;;;;;;;;5453519;26;20075;-79
2024/04/17 10:12:46;;;;;;;10.73;5.30;;;;;;;;;;5453680;26;20013;-79
2024/04/17 10:15:31;;;;;;;11.90;5.35;;;;;;;;;;5452703;26;19998;-79
2024/04/17 10:18:16;;;;;;;6.72;4.38;;;;;;;;;;5486292;26;20006;-79
2024/04/17 10:21:02;;;;;;;11.57;5.35;;;;;;;;;;5487257;26;20009;-79
2024/04/17 10:24:02;;;;;;;9.15;5.15;;;;;;;;;;5482604;26;20365;-79
2024/04/17 10:26:52;;;;;;;8.98;4.78;;;;;;;;;;5489531;26;20001;-80
2024/04/17 10:29:41;;;;;;;13.38;5.55;;;;;;;;;;5465153;26;19997;-80
2024/04/17 10:32:30;;;;;;;8.48;4.65;;;;;;;;;;5491028;26;20646;-78
2024/04/17 10:35:17;;;;;;;6.13;4.55;;;;;;;;;;5490207;26;20012;-79
2024/04/17 10:38:06;;;;;;;8.32;4.63;;;;;;;;;;5489750;26;19993;-79
2024/04/17 10:40:53;;;;;;;8.60;4.95;;;;;;;;;;5489169;26;19997;-79
2024/04/17 10:43:38;;;;;;;8.80;4.78;;;;;;;;;;5490215;26;20194;-79
2024/04/17 10:46:29;;;;;;;8.80;5.22;;;;;;;;;;5490430;26;20075;-79
2024/04/17 10:49:17;;;;;;;11.18;5.32;;;;;;;;;;5490372;26;20033;-79
2024/04/17 10:52:03;;;;;;;11.40;5.18;;;;;;;;;;5490351;26;20460;-79
2024/04/17 10:54:51;;;;;;;9.40;5.28;;;;;;;;;;5490207;26;20009;-80
2024/04/17 10:57:36;;;;;;;7.32;5.20;;;;;;;;;;5489982;26;20013;-80
2024/04/17 11:00:21;;;;;;;8.75;4.72;;;;;;;;;;5490118;26;20078;-79
2024/04/17 11:03:10;;;;;;;9.38;5.43;;;;;;;;;;5490876;26;19998;-79
2024/04/17 11:05:56;;;;;;;9.32;4.88;;;;;;;;;;5490135;26;19998;-79
2024/04/17 11:08:41;;;;;;;8.63;5.60;;;;;;;;;;5489996;26;20001;-80
2024/04/17 11:11:27;;;;;;;9.88;5.60;;;;;;;;;;5489501;26;19997;-80
2024/04/17 11:14:13;;;;;;;10.10;5.45;;;;;;;;;;5490080;26;20004;-80
2024/04/17 11:16:58;;;;;;;11.27;5.60;;;;;;;;;;5472671;26;20002;-80
2024/04/17 11:19:43;;;;;;;8.68;5.25;;;;;;;;;;5447615;26;20014;-80
2024/04/17 11:22:28;;;;;;;11.43;5.20;;;;;;;;;;5452810;26;20348;-80
2024/04/17 11:25:14;;;;;;;8.65;4.90;;;;;;;;;;5452999;26;20358;-80
2024/04/17 11:27:59;;;;;;;11.18;5.10;;;;;;;;;;5452734;26;20002;-79
2024/04/17 11:30:45;;;;;;;9.68;4.63;;;;;;;;;;5452713;26;19999;-80
2024/04/17 11:33:31;;;;;;;8.15;4.43;;;;;;;;;;5453167;26;19997;-80
2024/04/17 11:36:17;;;;;;;7.78;4.88;;;;;;;;;;5453104;26;20009;-78
2024/04/17 11:39:04;;;;;;;8.38;4.18;;;;;;;;;;5452023;26;20460;-79
2024/04/17 11:41:50;;;;;;;10.38;3.90;;;;;;;;;;5453000;26;20009;-79
2024/04/17 11:44:39;;;;;;;8.00;3.17;;;;;;;;;;5473762;26;20075;-79
2024/04/17 11:47:24;;;;;;;6.70;2.97;;;;;;;;;;5477720;26;20034;-79
2024/04/17 11:50:09;;;;;;;6.38;2.97;;;;;;;;;;5453580;26;20015;-78
2024/04/17 11:52:55;;;;;;;6.38;3.03;;;;;;;;;;5452736;26;20010;-79
2024/04/17 11:55:40;;;;;;;6.70;3.13;;;;;;;;;;5452415;26;20006;-79
2024/04/17 11:58:25;;;;;;;8.40;3.85;;;;;;;;;;5478545;26;20006;-79
2024/04/17 12:01:10;;;;;;;8.15;3.53;;;;;;;;;;5452691;26;20002;-79
2024/04/17 12:03:55;;;;;;;7.63;3.78;;;;;;;;;;5452799;26;20002;-79
2024/04/17 12:06:41;;;;;;;9.68;4.55;;;;;;;;;;5452650;26;20002;-79
2024/04/17 12:09:27;;;;;;;7.78;3.63;;;;;;;;;;5453213;26;20017;-79
2024/04/17 12:12:12;;;;;;;8.73;4.75;;;;;;;;;;5453110;26;20046;-79
2024/04/17 12:14:58;;;;;;;8.05;3.97;;;;;;;;;;5452282;26;20395;-79
2024/04/17 12:17:43;;;;;;;10.05;4.28;;;;;;;;;;5464182;26;20022;-80
2024/04/17 12:20:28;;;;;;;6.95;3.55;;;;;;;;;;5452686;26;20005;-79
2024/04/17 12:23:19;;;;;;;9.23;3.85;;;;;;;;;;5452467;26;20071;-79
2024/04/17 12:29:08;;;;;;;11.27;3.70;;;;;;;;;;5451926;26;19994;-79
2024/04/17 12:31:54;;;;;;;11.18;3.97;;;;;;;;;;5451732;26;20453;-79
2024/04/17 12:34:39;;;;;;;8.05;3.78;;;;;;;;;;5452287;26;20013;-78
2024/04/17 12:37:25;;;;;;;6.53;2.88;;;;;;;;;;5451947;26;20026;-79
2024/04/17 12:40:10;;;;;;;8.95;3.35;;;;;;;;;;5463746;26;20011;-79
2024/04/17 12:42:55;;;;;;;5.35;2.88;;;;;;;;;;5488417;26;20033;-79
2024/04/17 12:45:40;;;;;;;13.70;3.53;;;;;;;;;;5488429;26;20009;-79
2024/04/17 12:48:25;;;;;;;7.80;2.58;;;;;;;;;;5476859;26;20360;-78
2024/04/17 12:51:11;;;;;;;6.72;2.60;;;;;;;;;;5455272;26;20017;-79
2024/04/17 12:53:56;;;;;;;9.43;3.13;;;;;;;;;;5455587;26;20002;-80
2024/04/17 12:56:41;;;;;;;9.07;3.70;;;;;;;;;;5455010;26;20002;-80
2024/04/17 12:59:26;;;;;;;6.93;2.92;;;;;;;;;;5455127;26;20034;-80
2024/04/17 13:02:12;;;;;;;5.07;2.53;;;;;;;;;;5455580;26;19998;-80
2024/04/17 13:04:57;;;;;;;6.80;3.00;;;;;;;;;;5455664;26;20425;-80
2024/04/17 13:07:42;;;;;;;9.95;3.95;;;;;;;;;;5454887;26;20020;-78
2024/04/17 13:10:27;;;;;;;5.85;3.28;;;;;;;;;;5454783;26;20006;-78
2024/04/17 13:13:13;;;;;;;16.67;3.58;;;;;;;;;;5455554;26;20012;-78
2024/04/17 13:15:59;;;;;;;8.48;3.28;;;;;;;;;;5454554;26;20349;-78
2024/04/17 13:18:45;;;;;;;8.18;3.90;;;;;;;;;;5480231;26;19998;-79
2024/04/17 13:21:30;;;;;;;9.65;3.50;;;;;;;;;;5454870;26;20341;-79
2024/04/17 13:24:17;;;;;;;18.27;3.72;;;;;;;;;;5455702;26;20002;-78
2024/04/17 13:27:02;;;;;;;6.97;3.20;;;;;;;;;;5455023;26;20070;-78
2024/04/17 13:29:47;;;;;;;5.65;2.42;;;;;;;;;;5454660;26;20002;-78
2024/04/17 13:32:32;;;;;;;5.88;2.50;;;;;;;;;;5454466;26;20013;-78
2024/04/17 13:35:18;;;;;;;4.30;2.78;;;;;;;;;;5450844;26;20028;-79
2024/04/17 13:38:03;;;;;;;6.50;2.42;;;;;;;;;;5453767;26;20336;-80
2024/04/17 13:41:02;;;;;;;6.50;2.63;;;;;;;;;;5453093;26;19994;-80
2024/04/17 13:43:47;;;;;;;5.10;3.25;;;;;;;;;;5453897;26;20016;-80
2024/04/17 13:46:33;;;;;;;5.47;2.47;;;;;;;;;;5460512;26;20042;-80
2024/04/17 13:49:18;;;;;;;6.10;2.50;;;;;;;;;;5490910;26;19997;-80
2024/04/17 13:52:05;;;;;;;4.97;2.60;;;;;;;;;;5491386;26;20459;-80
2024/04/17 13:54:50;;;;;;;10.32;2.85;;;;;;;;;;5491054;26;20001;-80
2024/04/17 13:57:35;;;;;;;4.55;2.72;;;;;;;;;;5490935;26;20001;-80
2024/04/17 14:00:20;;;;;;;10.95;2.65;;;;;;;;;;5489445;26;20413;-80
2024/04/17 14:03:06;;;;;;;4.85;2.40;;;;;;;;;;5465608;26;20535;-79
2024/04/17 14:05:51;;;;;;;4.40;3.08;;;;;;;;;;5490338;26;20001;-80
2024/04/17 14:08:36;;;;;;;4.10;2.40;;;;;;;;;;5490587;26;20001;-79
2024/04/17 14:11:21;;;;;;;4.85;2.30;;;;;;;;;;5491180;26;20041;-80
2024/04/17 14:14:07;;;;;;;6.60;2.70;;;;;;;;;;5490371;26;20099;-80
2024/04/17 14:16:53;;;;;;;6.22;1.95;;;;;;;;;;5489994;26;20034;-80
2024/04/17 14:19:38;;;;;;;5.57;2.42;;;;;;;;;;5490217;26;19998;-79
2024/04/17 14:22:23;;;;;;;7.43;2.90;;;;;;;;;;5490988;26;20009;-79
2024/04/17 14:25:09;;;;;;;6.18;2.78;;;;;;;;;;5490602;26;20459;-79
2024/04/17 14:27:54;;;;;;;7.75;2.83;;;;;;;;;;5490060;26;20481;-78
2024/04/17 14:30:39;;;;;;;8.13;2.80;;;;;;;;;;5491303;26;20505;-79
2024/04/17 14:33:25;;;;;;;4.63;2.42;;;;;;;;;;5480084;26;20550;-79
2024/04/17 14:36:10;;;;;;;5.47;2.97;;;;;;;;;;5454940;26;20009;-80
2024/04/17 14:38:55;;;;;;;6.18;3.08;;;;;;;;;;5453958;26;20983;-79
2024/04/17 14:41:40;;;;;;;5.43;2.65;;;;;;;;;;5453819;26;20512;-79
2024/04/17 14:44:27;;;;;;;6.45;2.20;;;;;;;;;;5454085;26;20027;-79
2024/04/17 14:47:12;;;;;;;6.93;2.63;;;;;;;;;;5469747;26;20041;-79
2024/04/17 14:49:57;;;;;;;5.68;2.63;;;;;;;;;;5490538;26;20013;-80
2024/04/17 14:52:42;;;;;;;9.43;2.53;;;;;;;;;;5490953;26;20041;-79
2024/04/17 14:55:28;;;;;;;6.20;3.30;;;;;;;;;;5490053;26;20002;-79
2024/04/17 14:58:13;;;;;;;6.32;2.55;;;;;;;;;;5490108;26;20013;-79
2024/04/17 15:00:59;;;;;;;5.93;2.50;;;;;;;;;;5489396;26;20405;-79
2024/04/17 15:03:45;;;;;;;3.72;2.83;;;;;;;;;;5489815;26;20012;-79
2024/04/17 15:06:30;;;;;;;5.22;2.50;;;;;;;;;;5489729;26;19997;-79
2024/04/17 15:09:16;;;;;;;5.93;2.47;;;;;;;;;;5489817;26;20005;-79
2024/04/17 15:12:01;;;;;;;3.83;2.70;;;;;;;;;;5488742;26;20005;-79
2024/04/17 15:14:47;;;;;;;9.82;2.78;;;;;;;;;;5489779;26;19998;-79
2024/04/17 15:17:32;;;;;;;5.70;2.53;;;;;;;;;;5477844;26;20013;-79
2024/04/17 15:20:18;;;;;;;5.10;2.47;;;;;;;;;;5452068;26;19994;-80
2024/04/17 15:23:03;;;;;;;5.18;3.25;;;;;;;;;;5453078;26;20082;-80
2024/04/17 15:26:08;;;;;;;5.95;2.50;;;;;;;;;;5440907;26;20049;-79
2024/04/17 15:28:53;;;;;;;5.35;2.72;;;;;;;;;;5451682;26;20013;-79
2024/04/17 15:31:39;;;;;;;6.20;2.60;;;;;;;;;;5475026;26;20447;-79
2024/04/17 15:34:24;;;;;;;3.20;2.20;;;;;;;;;;5478499;26;20013;-80
2024/04/17 15:37:11;;;;;;;6.25;2.85;;;;;;;;;;5478545;26;20308;-81
2024/04/17 15:39:57;;;;;;;7.38;2.45;;;;;;;;;;5477414;26;20005;-82
2024/04/17 15:42:43;;;;;;;3.47;2.55;;;;;;;;;;5477762;26;20339;-81
2024/04/17 15:45:30;;;;;;;4.38;2.10;;;;;;;;;;5454717;26;20002;-81
2024/04/17 15:48:15;;;;;;;4.25;2.45;;;;;;;;;;5467690;26;20009;-81
2024/04/17 15:51:08;;;;;;;5.82;2.15;;;;;;;;;;5442666;26;20010;-81
2024/04/17 15:53:53;;;;;;;10.05;3.05;;;;;;;;;;5442414;26;20079;-81
2024/04/17 15:56:38;;;;;;;4.15;2.58;;;;;;;;;;5441569;26;20039;-81
2024/04/17 15:59:23;;;;;;;4.32;2.35;;;;;;;;;;5414076;26;20046;-81
2024/04/17 16:02:09;;;;;;;4.68;2.20;;;;;;;;;;5441777;26;20013;-82
2024/04/17 16:04:56;;;;;;;9.75;3.53;;;;;;;;;;5441550;26;20010;-81
2024/04/17 16:07:42;;;;;;;4.90;2.15;;;;;;;;;;5441817;26;20003;-79
2024/04/17 16:10:27;;;;;;;6.53;2.47;;;;;;;;;;5441175;26;20014;-79
2024/04/17 16:13:12;;;;;;;5.30;2.63;;;;;;;;;;5442135;26;20003;-78
2024/04/17 16:15:58;;;;;;;4.88;1.92;;;;;;;;;;5456343;26;20011;-80
2024/04/17 16:18:43;;;;;;;4.72;2.00;;;;;;;;;;5461868;26;19999;-80
2024/04/17 16:21:28;;;;;;;4.38;2.20;;;;;;;;;;5441861;26;20018;-81
2024/04/17 16:24:16;;;;;;;3.08;2.40;;;;;;;;;;5449359;26;20008;-80
2024/04/17 16:27:03;;;;;;;4.93;2.20;;;;;;;;;;5434316;26;20001;-80
2024/04/17 16:29:48;;;;;;;4.28;1.90;;;;;;;;;;5485795;26;20037;-81
2024/04/17 16:32:34;;;;;;;4.68;2.40;;;;;;;;;;5468571;26;19995;-81
2024/04/17 16:35:19;;;;;;;3.78;2.45;;;;;;;;;;5486952;26;19997;-81
2024/04/17 16:38:04;;;;;;;6.13;2.25;;;;;;;;;;5471417;26;20036;-81
2024/04/17 16:40:50;;;;;;;3.35;1.83;;;;;;;;;;5477343;26;19994;-82